createdAt,value
2022-08-28T00:27:22.749Z,1016.14
2022-08-28T00:56:13.811Z,1016.1
2022-08-28T01:24:30.898Z,1016.13
2022-08-28T01:53:16.283Z,1016.17
2022-08-28T02:21:58.977Z,1016.09
2022-08-28T02:50:49.552Z,1016.11
2022-08-28T03:19:22.893Z,1016.07
2022-08-28T03:48:15.291Z,1016.08
2022-08-28T04:16:58.589Z,1016.11
2022-08-28T04:45:22.341Z,1016.34
2022-08-28T05:14:06.899Z,1016.49
2022-08-28T05:42:45.604Z,1016.69
2022-08-28T06:11:46.735Z,1016.91
2022-08-28T06:40:06.810Z,1017.07
2022-08-28T07:08:47.220Z,1017.24
2022-08-28T07:37:41.499Z,1017.38
2022-08-28T08:06:12.106Z,1017.66
2022-08-28T08:34:58.007Z,1017.86
2022-08-28T09:03:28.816Z,1017.96
2022-08-28T09:32:07.239Z,1017.93
2022-08-28T10:00:49.379Z,1017.86
2022-08-28T10:29:28.283Z,1017.89
2022-08-28T10:58:25.885Z,1017.66
2022-08-28T11:26:35.703Z,1017.6
2022-08-28T11:55:16.591Z,1017.54
2022-08-28T12:24:09.795Z,1017.4
2022-08-28T12:52:22.439Z,1017.34
2022-08-28T13:21:07.114Z,1017.28
2022-08-28T13:49:55.731Z,1017.04
2022-08-28T14:18:42.664Z,1016.81
2022-08-28T14:47:33.607Z,1016.65
2022-08-28T15:16:20.593Z,1016.47
2022-08-28T15:44:59.234Z,1016.45
2022-08-28T16:13:23.349Z,1016.4
2022-08-28T16:42:06.973Z,1016.35
2022-08-28T17:10:53.193Z,1016.33
2022-08-28T17:39:26.800Z,1016.48
2022-08-28T18:08:15.480Z,1016.66
2022-08-28T18:36:53.306Z,1017.19
2022-08-28T19:05:38.703Z,1017.42
2022-08-28T19:34:17.604Z,1017.59
2022-08-28T20:02:58.979Z,1017.93
2022-08-28T20:31:33.807Z,1018.03
2022-08-28T21:00:14.388Z,1018.12
2022-08-28T21:29:06.057Z,1018.23
2022-08-28T21:57:49.666Z,1018.33
2022-08-28T22:26:36.622Z,1018.3
2022-08-28T22:55:26.985Z,1018.36
2022-08-28T23:23:53.510Z,1018.32
2022-08-28T23:52:45.596Z,1018.31
